sensor_id;sensor_type;location;lat;lon;timestamp;pressure;altitude;pressure_sealevel;temperature;humidity
60015;BME280;45867;52.480;6.056;2023-04-06T00:00:35;101892.16;;;1.07;100.00
60015;BME280;45867;52.480;6.056;2023-04-06T00:03:01;101887.22;;;1.12;100.00
60015;BME280;45867;52.480;6.056;2023-04-06T00:05:26;101891.34;;;1.06;100.00
60015;BME280;45867;52.480;6.056;2023-04-06T00:07:53;101885.50;;;1.04;100.00
60015;BME280;45867;52.480;6.056;2023-04-06T00:10:19;101888.97;;;0.97;100.00
60015;BME280;45867;52.480;6.056;2023-04-06T00:12:44;101878.09;;;0.93;100.00
60015;BME280;45867;52.480;6.056;2023-04-06T00:15:10;101877.47;;;1.06;100.00
60015;BME280;45867;52.480;6.056;2023-04-06T00:17:35;101876.72;;;0.97;100.00
60015;BME280;45867;52.480;6.056;2023-04-06T00:20:01;101873.84;;;0.92;100.00
60015;BME280;45867;52.480;6.056;2023-04-06T00:22:26;101874.09;;;0.82;100.00
60015;BME280;45867;52.480;6.056;2023-04-06T00:24:51;101871.84;;;0.79;100.00
60015;BME280;45867;52.480;6.056;2023-04-06T00:27:17;101873.75;;;0.85;100.00
60015;BME280;45867;52.480;6.056;2023-04-06T00:29:43;101857.63;;;0.82;100.00
60015;BME280;45867;52.480;6.056;2023-04-06T00:32:09;101859.88;;;0.85;100.00
60015;BME280;45867;52.480;6.056;2023-04-06T00:34:35;101855.97;;;1.04;100.00
60015;BME280;45867;52.480;6.056;2023-04-06T00:37:00;101850.41;;;1.07;100.00
60015;BME280;45867;52.480;6.056;2023-04-06T00:39:25;101852.19;;;1.06;100.00
60015;BME280;45867;52.480;6.056;2023-04-06T00:41:51;101846.41;;;0.96;100.00
60015;BME280;45867;52.480;6.056;2023-04-06T00:44:20;101845.69;;;0.87;100.00
60015;BME280;45867;52.480;6.056;2023-04-06T00:46:46;101827.81;;;0.76;100.00
60015;BME280;45867;52.480;6.056;2023-04-06T00:49:12;101839.00;;;0.85;100.00
60015;BME280;45867;52.480;6.056;2023-04-06T00:51:37;101840.63;;;1.01;100.00
60015;BME280;45867;52.480;6.056;2023-04-06T00:54:02;101844.91;;;1.02;100.00
60015;BME280;45867;52.480;6.056;2023-04-06T00:56:28;101844.16;;;0.93;100.00
60015;BME280;45867;52.480;6.056;2023-04-06T00:58:53;101839.38;;;0.82;100.00
60015;BME280;45867;52.480;6.056;2023-04-06T01:01:19;101840.97;;;0.83;100.00
60015;BME280;45867;52.480;6.056;2023-04-06T01:03:45;101841.69;;;0.77;100.00
60015;BME280;45867;52.480;6.056;2023-04-06T01:06:14;101825.97;;;0.62;100.00
60015;BME280;45867;52.480;6.056;2023-04-06T01:08:39;101823.84;;;0.65;100.00
60015;BME280;45867;52.480;6.056;2023-04-06T01:11:04;101812.59;;;0.65;100.00
60015;BME280;45867;52.480;6.056;2023-04-06T01:13:30;101824.81;;;0.64;100.00
60015;BME280;45867;52.480;6.056;2023-04-06T01:15:55;101816.53;;;0.61;100.00
60015;BME280;45867;52.480;6.056;2023-04-06T01:18:28;101814.84;;;0.68;100.00
60015;BME280;45867;52.480;6.056;2023-04-06T01:20:53;101804.94;;;0.63;100.00
60015;BME280;45867;52.480;6.056;2023-04-06T01:23:19;101805.66;;;0.57;100.00
60015;BME280;45867;52.480;6.056;2023-04-06T01:25:44;101816.19;;;0.64;100.00
60015;BME280;45867;52.480;6.056;2023-04-06T01:28:09;101812.78;;;0.63;100.00
60015;BME280;45867;52.480;6.056;2023-04-06T01:30:35;101808.53;;;0.62;100.00
60015;BME280;45867;52.480;6.056;2023-04-06T01:33:00;101801.13;;;0.51;100.00
60015;BME280;45867;52.480;6.056;2023-04-06T01:35:27;101806.69;;;0.48;100.00
60015;BME280;45867;52.480;6.056;2023-04-06T01:37:52;101799.06;;;0.47;100.00
60015;BME280;45867;52.480;6.056;2023-04-06T01:40:18;101798.50;;;0.51;100.00
60015;BME280;45867;52.480;6.056;2023-04-06T01:42:43;101787.19;;;0.44;100.00
60015;BME280;45867;52.480;6.056;2023-04-06T01:45:08;101798.00;;;0.56;100.00
60015;BME280;45867;52.480;6.056;2023-04-06T01:47:34;101800.59;;;0.56;100.00
60015;BME280;45867;52.480;6.056;2023-04-06T01:49:59;101769.44;;;0.39;100.00
60015;BME280;45867;52.480;6.056;2023-04-06T01:52:28;101787.63;;;0.48;100.00
60015;BME280;45867;52.480;6.056;2023-04-06T01:54:54;101794.88;;;0.37;100.00
60015;BME280;45867;52.480;6.056;2023-04-06T01:57:19;101798.56;;;0.43;100.00
60015;BME280;45867;52.480;6.056;2023-04-06T01:59:45;101797.06;;;0.49;100.00
60015;BME280;45867;52.480;6.056;2023-04-06T02:02:10;101787.03;;;0.60;100.00
60015;BME280;45867;52.480;6.056;2023-04-06T02:04:37;101789.53;;;0.54;100.00
60015;BME280;45867;52.480;6.056;2023-04-06T02:07:04;101786.28;;;0.52;100.00
60015;BME280;45867;52.480;6.056;2023-04-06T02:09:29;101782.19;;;0.57;100.00
60015;BME280;45867;52.480;6.056;2023-04-06T02:11:55;101782.69;;;0.53;100.00
60015;BME280;45867;52.480;6.056;2023-04-06T02:14:23;101773.53;;;0.57;100.00
60015;BME280;45867;52.480;6.056;2023-04-06T02:16:49;101771.28;;;0.54;100.00
60015;BME280;45867;52.480;6.056;2023-04-06T02:19:14;101764.59;;;0.36;100.00
60015;BME280;45867;52.480;6.056;2023-04-06T02:21:39;101773.22;;;0.37;100.00
60015;BME280;45867;52.480;6.056;2023-04-06T02:24:05;101766.75;;;0.33;100.00
60015;BME280;45867;52.480;6.056;2023-04-06T02:26:30;101757.97;;;0.26;100.00
60015;BME280;45867;52.480;6.056;2023-04-06T02:28:56;101757.69;;;0.20;100.00
60015;BME280;45867;52.480;6.056;2023-04-06T02:31:21;101768.41;;;0.26;100.00
60015;BME280;45867;52.480;6.056;2023-04-06T02:33:46;101756.47;;;0.31;100.00
60015;BME280;45867;52.480;6.056;2023-04-06T02:36:12;101756.56;;;0.38;100.00
60015;BME280;45867;52.480;6.056;2023-04-06T02:38:37;101739.03;;;0.32;100.00
60015;BME280;45867;52.480;6.056;2023-04-06T02:41:02;101763.06;;;0.42;100.00
60015;BME280;45867;52.480;6.056;2023-04-06T02:43:28;101752.63;;;0.42;100.00
60015;BME280;45867;52.480;6.056;2023-04-06T02:45:53;101750.53;;;0.37;100.00
60015;BME280;45867;52.480;6.056;2023-04-06T02:48:18;101750.81;;;0.28;100.00
60015;BME280;45867;52.480;6.056;2023-04-06T02:50:44;101754.56;;;0.25;100.00
60015;BME280;45867;52.480;6.056;2023-04-06T02:53:09;101750.88;;;0.19;100.00
60015;BME280;45867;52.480;6.056;2023-04-06T02:55:37;101745.00;;;0.17;100.00
60015;BME280;45867;52.480;6.056;2023-04-06T02:58:03;101743.91;;;0.12;100.00
60015;BME280;45867;52.480;6.056;2023-04-06T03:00:28;101746.63;;;0.18;100.00
60015;BME280;45867;52.480;6.056;2023-04-06T03:02:54;101740.53;;;0.26;100.00
60015;BME280;45867;52.480;6.056;2023-04-06T03:05:19;101735.22;;;0.19;100.00
60015;BME280;45867;52.480;6.056;2023-04-06T03:07:44;101737.94;;;0.26;100.00
60015;BME280;45867;52.480;6.056;2023-04-06T03:10:10;101726.06;;;0.24;100.00
60015;BME280;45867;52.480;6.056;2023-04-06T03:12:35;101728.56;;;0.17;100.00
60015;BME280;45867;52.480;6.056;2023-04-06T03:15:01;101728.03;;;0.21;100.00
60015;BME280;45867;52.480;6.056;2023-04-06T03:17:26;101733.44;;;0.20;100.00
60015;BME280;45867;52.480;6.056;2023-04-06T03:19:51;101732.44;;;0.21;100.00
60015;BME280;45867;52.480;6.056;2023-04-06T03:22:17;101728.16;;;0.28;100.00
60015;BME280;45867;52.480;6.056;2023-04-06T03:24:42;101725.53;;;0.28;100.00
60015;BME280;45867;52.480;6.056;2023-04-06T03:27:07;101731.94;;;0.40;100.00
60015;BME280;45867;52.480;6.056;2023-04-06T03:29:33;101726.91;;;0.39;100.00
60015;BME280;45867;52.480;6.056;2023-04-06T03:31:58;101730.34;;;0.39;100.00
60015;BME280;45867;52.480;6.056;2023-04-06T03:34:23;101712.50;;;0.28;100.00
60015;BME280;45867;52.480;6.056;2023-04-06T03:36:49;101721.22;;;0.35;100.00
60015;BME280;45867;52.480;6.056;2023-04-06T03:39:14;101721.47;;;0.26;100.00
60015;BME280;45867;52.480;6.056;2023-04-06T03:41:39;101720.03;;;0.23;100.00
60015;BME280;45867;52.480;6.056;2023-04-06T03:44:05;101711.28;;;0.16;100.00
60015;BME280;45867;52.480;6.056;2023-04-06T03:46:31;101708.13;;;0.06;100.00
60015;BME280;45867;52.480;6.056;2023-04-06T03:48:56;101706.34;;;0.06;100.00
60015;BME280;45867;52.480;6.056;2023-04-06T03:51:21;101717.72;;;0.05;100.00
60015;BME280;45867;52.480;6.056;2023-04-06T03:53:47;101708.28;;;0.04;100.00
60015;BME280;45867;52.480;6.056;2023-04-06T03:56:12;101693.22;;;-0.09;100.00
60015;BME280;45867;52.480;6.056;2023-04-06T03:58:37;101712.78;;;0.10;100.00
60015;BME280;45867;52.480;6.056;2023-04-06T04:01:03;101709.22;;;0.11;100.00
60015;BME280;45867;52.480;6.056;2023-04-06T04:03:28;101707.84;;;0.01;100.00
60015;BME280;45867;52.480;6.056;2023-04-06T04:05:54;101716.47;;;0.01;100.00
60015;BME280;45867;52.480;6.056;2023-04-06T04:08:20;101719.72;;;0.03;100.00
60015;BME280;45867;52.480;6.056;2023-04-06T04:10:46;101711.00;;;0.11;100.00
60015;BME280;45867;52.480;6.056;2023-04-06T04:13:11;101697.81;;;0.12;100.00
60015;BME280;45867;52.480;6.056;2023-04-06T04:15:37;101707.06;;;0.15;100.00
60015;BME280;45867;52.480;6.056;2023-04-06T04:18:02;101719.69;;;0.26;100.00
60015;BME280;45867;52.480;6.056;2023-04-06T04:20:27;101709.97;;;0.20;100.00
60015;BME280;45867;52.480;6.056;2023-04-06T04:22:53;101716.16;;;0.19;100.00
60015;BME280;45867;52.480;6.056;2023-04-06T04:25:19;101716.06;;;0.27;100.00
60015;BME280;45867;52.480;6.056;2023-04-06T04:27:44;101708.25;;;0.27;100.00
60015;BME280;45867;52.480;6.056;2023-04-06T04:30:09;101711.50;;;0.29;100.00
60015;BME280;45867;52.480;6.056;2023-04-06T04:32:35;101709.63;;;0.23;100.00
60015;BME280;45867;52.480;6.056;2023-04-06T04:35:02;101707.47;;;0.27;100.00
60015;BME280;45867;52.480;6.056;2023-04-06T04:37:27;101695.34;;;0.11;100.00
60015;BME280;45867;52.480;6.056;2023-04-06T04:39:53;101701.00;;;0.22;100.00
60015;BME280;45867;52.480;6.056;2023-04-06T04:42:18;101686.78;;;0.25;100.00
60015;BME280;45867;52.480;6.056;2023-04-06T04:44:43;101699.91;;;0.32;100.00
60015;BME280;45867;52.480;6.056;2023-04-06T04:47:09;101702.72;;;0.30;100.00
60015;BME280;45867;52.480;6.056;2023-04-06T04:49:34;101694.69;;;0.32;100.00
60015;BME280;45867;52.480;6.056;2023-04-06T04:52:08;101671.56;;;0.14;100.00
60015;BME280;45867;52.480;6.056;2023-04-06T04:54:33;101701.00;;;0.37;100.00
60015;BME280;45867;52.480;6.056;2023-04-06T04:56:59;101700.72;;;0.32;100.00
60015;BME280;45867;52.480;6.056;2023-04-06T04:59:24;101695.72;;;0.46;100.00
60015;BME280;45867;52.480;6.056;2023-04-06T05:01:49;101673.03;;;0.31;100.00
60015;BME280;45867;52.480;6.056;2023-04-06T05:04:15;101695.34;;;0.49;100.00
60015;BME280;45867;52.480;6.056;2023-04-06T05:06:40;101697.28;;;0.55;100.00
60015;BME280;45867;52.480;6.056;2023-04-06T05:09:05;101672.72;;;0.49;100.00
60015;BME280;45867;52.480;6.056;2023-04-06T05:11:31;101678.47;;;0.59;100.00
60015;BME280;45867;52.480;6.056;2023-04-06T05:13:56;101703.84;;;0.80;100.00
60015;BME280;45867;52.480;6.056;2023-04-06T05:16:21;101692.78;;;0.78;100.00
60015;BME280;45867;52.480;6.056;2023-04-06T05:18:50;101681.72;;;0.76;100.00
60015;BME280;45867;52.480;6.056;2023-04-06T05:21:15;101691.53;;;0.89;100.00
60015;BME280;45867;52.480;6.056;2023-04-06T05:23:40;101687.59;;;0.93;100.00
60015;BME280;45867;52.480;6.056;2023-04-06T05:26:06;101691.69;;;1.02;100.00
60015;BME280;45867;52.480;6.056;2023-04-06T05:28:32;101677.66;;;1.03;100.00
60015;BME280;45867;52.480;6.056;2023-04-06T05:30:57;101685.28;;;1.20;100.00
60015;BME280;45867;52.480;6.056;2023-04-06T05:33:23;101677.81;;;1.17;100.00
60015;BME280;45867;52.480;6.056;2023-04-06T05:35:49;101691.94;;;1.37;100.00
60015;BME280;45867;52.480;6.056;2023-04-06T05:38:14;101679.84;;;1.36;100.00
60015;BME280;45867;52.480;6.056;2023-04-06T05:40:40;101683.19;;;1.45;100.00
60015;BME280;45867;52.480;6.056;2023-04-06T05:43:06;101681.81;;;1.49;100.00
60015;BME280;45867;52.480;6.056;2023-04-06T05:45:32;101678.91;;;1.59;100.00
60015;BME280;45867;52.480;6.056;2023-04-06T05:47:57;101652.19;;;1.42;100.00
60015;BME280;45867;52.480;6.056;2023-04-06T05:50:22;101678.16;;;1.65;100.00
60015;BME280;45867;52.480;6.056;2023-04-06T05:52:48;101682.72;;;1.77;100.00
60015;BME280;45867;52.480;6.056;2023-04-06T05:55:14;101680.41;;;1.89;100.00
60015;BME280;45867;52.480;6.056;2023-04-06T05:57:39;101674.03;;;1.98;100.00
60015;BME280;45867;52.480;6.056;2023-04-06T06:00:06;101676.47;;;2.21;100.00
60015;BME280;45867;52.480;6.056;2023-04-06T06:02:33;101679.72;;;2.58;100.00
60015;BME280;45867;52.480;6.056;2023-04-06T06:04:59;101664.50;;;2.75;100.00
60015;BME280;45867;52.480;6.056;2023-04-06T06:07:25;101673.22;;;2.82;100.00
60015;BME280;45867;52.480;6.056;2023-04-06T06:09:50;101673.19;;;2.76;100.00
60015;BME280;45867;52.480;6.056;2023-04-06T06:12:16;101682.09;;;2.81;100.00
60015;BME280;45867;52.480;6.056;2023-04-06T06:14:41;101683.34;;;2.92;100.00
60015;BME280;45867;52.480;6.056;2023-04-06T06:17:06;101669.44;;;2.92;100.00
60015;BME280;45867;52.480;6.056;2023-04-06T06:19:32;101682.16;;;2.95;100.00
60015;BME280;45867;52.480;6.056;2023-04-06T06:21:57;101668.22;;;2.94;100.00
60015;BME280;45867;52.480;6.056;2023-04-06T06:24:23;101664.41;;;2.97;100.00
60015;BME280;45867;52.480;6.056;2023-04-06T06:26:49;101665.28;;;3.04;100.00
60015;BME280;45867;52.480;6.056;2023-04-06T06:29:15;101653.38;;;3.08;100.00
60015;BME280;45867;52.480;6.056;2023-04-06T06:31:40;101659.69;;;3.20;100.00
60015;BME280;45867;52.480;6.056;2023-04-06T06:34:33;101674.22;;;3.23;100.00
60015;BME280;45867;52.480;6.056;2023-04-06T06:36:58;101661.13;;;3.23;100.00
60015;BME280;45867;52.480;6.056;2023-04-06T06:39:24;101666.78;;;3.33;100.00
60015;BME280;45867;52.480;6.056;2023-04-06T06:41:50;101660.34;;;3.42;100.00
60015;BME280;45867;52.480;6.056;2023-04-06T06:44:15;101651.91;;;3.47;100.00
60015;BME280;45867;52.480;6.056;2023-04-06T06:46:41;101662.25;;;3.68;100.00
60015;BME280;45867;52.480;6.056;2023-04-06T06:49:07;101671.91;;;3.81;100.00
60015;BME280;45867;52.480;6.056;2023-04-06T06:51:32;101656.19;;;3.81;100.00
60015;BME280;45867;52.480;6.056;2023-04-06T06:53:57;101659.63;;;3.95;100.00
60015;BME280;45867;52.480;6.056;2023-04-06T06:56:23;101656.41;;;4.13;100.00
60015;BME280;45867;52.480;6.056;2023-04-06T06:58:48;101662.47;;;4.13;100.00
60015;BME280;45867;52.480;6.056;2023-04-06T07:01:13;101663.47;;;4.19;100.00
60015;BME280;45867;52.480;6.056;2023-04-06T07:03:39;101650.16;;;4.20;100.00
60015;BME280;45867;52.480;6.056;2023-04-06T07:06:04;101648.75;;;4.18;100.00
60015;BME280;45867;52.480;6.056;2023-04-06T07:08:30;101655.97;;;4.36;100.00
60015;BME280;45867;52.480;6.056;2023-04-06T07:10:55;101647.09;;;4.30;100.00
60015;BME280;45867;52.480;6.056;2023-04-06T07:13:21;101644.88;;;4.40;100.00
60015;BME280;45867;52.480;6.056;2023-04-06T07:15:51;101623.84;;;4.47;100.00
60015;BME280;45867;52.480;6.056;2023-04-06T07:18:18;101645.59;;;4.74;100.00
60015;BME280;45867;52.480;6.056;2023-04-06T07:20:44;101651.00;;;4.93;100.00
60015;BME280;45867;52.480;6.056;2023-04-06T07:23:09;101641.47;;;5.05;100.00
60015;BME280;45867;52.480;6.056;2023-04-06T07:25:35;101647.22;;;5.27;100.00
60015;BME280;45867;52.480;6.056;2023-04-06T07:28:02;101639.41;;;5.45;100.00
60015;BME280;45867;52.480;6.056;2023-04-06T07:30:27;101651.59;;;5.71;100.00
60015;BME280;45867;52.480;6.056;2023-04-06T07:32:56;101647.56;;;6.62;100.00
60015;BME280;45867;52.480;6.056;2023-04-06T07:35:23;101642.91;;;7.43;100.00
60015;BME280;45867;52.480;6.056;2023-04-06T07:37:52;101637.59;;;7.73;100.00
60015;BME280;45867;52.480;6.056;2023-04-06T07:40:18;101644.16;;;8.77;100.00
60015;BME280;45867;52.480;6.056;2023-04-06T07:42:45;101640.28;;;9.87;100.00
60015;BME280;45867;52.480;6.056;2023-04-06T07:45:11;101639.50;;;9.87;100.00
60015;BME280;45867;52.480;6.056;2023-04-06T07:47:36;101636.53;;;10.00;100.00
60015;BME280;45867;52.480;6.056;2023-04-06T07:50:01;101626.41;;;10.31;98.72
60015;BME280;45867;52.480;6.056;2023-04-06T07:52:27;101627.81;;;10.38;95.56
60015;BME280;45867;52.480;6.056;2023-04-06T07:54:52;101639.19;;;9.83;95.14
60015;BME280;45867;52.480;6.056;2023-04-06T07:57:18;101637.41;;;10.39;97.12
60015;BME280;45867;52.480;6.056;2023-04-06T07:59:43;101634.25;;;11.36;94.76
60015;BME280;45867;52.480;6.056;2023-04-06T08:02:08;101621.88;;;11.19;89.71
60015;BME280;45867;52.480;6.056;2023-04-06T08:04:35;101627.06;;;11.09;90.90
60015;BME280;45867;52.480;6.056;2023-04-06T08:07:00;101622.84;;;10.42;90.79
60015;BME280;45867;52.480;6.056;2023-04-06T08:09:25;101638.63;;;10.32;93.14
60015;BME280;45867;52.480;6.056;2023-04-06T08:11:51;101635.91;;;10.93;93.61
60015;BME280;45867;52.480;6.056;2023-04-06T08:14:17;101637.84;;;10.97;91.91
60015;BME280;45867;52.480;6.056;2023-04-06T08:16:42;101630.94;;;11.23;89.89
60015;BME280;45867;52.480;6.056;2023-04-06T08:19:07;101630.34;;;11.43;89.33
60015;BME280;45867;52.480;6.056;2023-04-06T08:21:35;101635.84;;;11.37;87.88
60015;BME280;45867;52.480;6.056;2023-04-06T08:24:01;101632.38;;;11.36;87.59
60015;BME280;45867;52.480;6.056;2023-04-06T08:26:27;101631.81;;;11.07;88.89
60015;BME280;45867;52.480;6.056;2023-04-06T08:28:53;101631.66;;;11.41;88.16
60015;BME280;45867;52.480;6.056;2023-04-06T08:31:27;101623.34;;;11.64;87.49
60015;BME280;45867;52.480;6.056;2023-04-06T08:33:52;101630.56;;;11.42;85.22
60015;BME280;45867;52.480;6.056;2023-04-06T08:36:18;101616.66;;;11.62;87.13
60015;BME280;45867;52.480;6.056;2023-04-06T08:38:48;101630.16;;;12.19;85.34
60015;BME280;45867;52.480;6.056;2023-04-06T08:41:14;101622.00;;;12.36;80.75
60015;BME280;45867;52.480;6.056;2023-04-06T08:43:48;101619.47;;;12.14;79.90
60015;BME280;45867;52.480;6.056;2023-04-06T08:46:14;101619.69;;;12.55;81.06
60015;BME280;45867;52.480;6.056;2023-04-06T08:48:41;101626.44;;;12.26;78.02
60015;BME280;45867;52.480;6.056;2023-04-06T08:51:09;101616.72;;;11.67;80.88
60015;BME280;45867;52.480;6.056;2023-04-06T08:53:35;101614.22;;;11.23;86.39
60015;BME280;45867;52.480;6.056;2023-04-06T08:56:02;101622.63;;;11.15;86.51
60015;BME280;45867;52.480;6.056;2023-04-06T08:58:31;101610.06;;;11.05;88.78
60015;BME280;45867;52.480;6.056;2023-04-06T09:00:57;101615.38;;;10.61;90.10
60015;BME280;45867;52.480;6.056;2023-04-06T09:03:25;101614.38;;;11.11;90.07
60015;BME280;45867;52.480;6.056;2023-04-06T09:05:51;101600.53;;;11.36;90.01
60015;BME280;45867;52.480;6.056;2023-04-06T09:08:18;101604.91;;;11.20;89.54
60015;BME280;45867;52.480;6.056;2023-04-06T09:10:46;101590.66;;;10.77;89.43
60015;BME280;45867;52.480;6.056;2023-04-06T09:13:12;101610.09;;;10.61;90.23
60015;BME280;45867;52.480;6.056;2023-04-06T09:15:38;101598.19;;;10.63;90.59
60015;BME280;45867;52.480;6.056;2023-04-06T09:18:03;101592.44;;;10.72;89.29
60015;BME280;45867;52.480;6.056;2023-04-06T09:20:29;101609.13;;;10.67;87.32
60015;BME280;45867;52.480;6.056;2023-04-06T09:22:55;101609.66;;;10.47;87.08
60015;BME280;45867;52.480;6.056;2023-04-06T09:25:22;101610.03;;;11.00;89.64
60015;BME280;45867;52.480;6.056;2023-04-06T09:27:48;101606.47;;;11.48;88.73
60015;BME280;45867;52.480;6.056;2023-04-06T09:30:15;101600.53;;;11.68;83.82
60015;BME280;45867;52.480;6.056;2023-04-06T09:32:49;101606.00;;;11.56;78.51
60015;BME280;45867;52.480;6.056;2023-04-06T09:35:14;101610.41;;;10.86;76.96
60015;BME280;45867;52.480;6.056;2023-04-06T09:37:43;101592.97;;;10.96;77.40
60015;BME280;45867;52.480;6.056;2023-04-06T09:40:09;101602.53;;;11.24;76.39
60015;BME280;45867;52.480;6.056;2023-04-06T09:42:35;101600.75;;;11.29;77.09
60015;BME280;45867;52.480;6.056;2023-04-06T09:45:02;101597.34;;;11.34;74.69
60015;BME280;45867;52.480;6.056;2023-04-06T09:47:28;101603.66;;;11.01;78.40
60015;BME280;45867;52.480;6.056;2023-04-06T09:49:59;101592.44;;;10.94;74.42
60015;BME280;45867;52.480;6.056;2023-04-06T09:52:51;101588.78;;;11.27;76.39
60015;BME280;45867;52.480;6.056;2023-04-06T09:55:43;101596.31;;;11.35;74.26
60015;BME280;45867;52.480;6.056;2023-04-06T09:58:16;101594.22;;;11.74;72.87
60015;BME280;45867;52.480;6.056;2023-04-06T10:00:57;101585.16;;;12.08;72.51
60015;BME280;45867;52.480;6.056;2023-04-06T10:03:39;101590.31;;;12.30;73.61
60015;BME280;45867;52.480;6.056;2023-04-06T10:06:11;101597.47;;;13.02;68.84
60015;BME280;45867;52.480;6.056;2023-04-06T10:08:39;101590.63;;;13.78;66.85
60015;BME280;45867;52.480;6.056;2023-04-06T10:11:07;101588.28;;;14.52;59.99
60015;BME280;45867;52.480;6.056;2023-04-06T10:13:33;101588.03;;;15.37;57.02
60015;BME280;45867;52.480;6.056;2023-04-06T10:15:59;101569.56;;;16.04;53.10
60015;BME280;45867;52.480;6.056;2023-04-06T10:18:26;101574.69;;;15.37;49.66
60015;BME280;45867;52.480;6.056;2023-04-06T10:21:04;101587.97;;;15.47;50.67
60015;BME280;45867;52.480;6.056;2023-04-06T10:23:34;101582.44;;;16.45;47.83
60015;BME280;45867;52.480;6.056;2023-04-06T10:26:01;101591.78;;;17.56;46.92
60015;BME280;45867;52.480;6.056;2023-04-06T10:28:36;101579.88;;;16.35;48.01
60015;BME280;45867;52.480;6.056;2023-04-06T10:31:04;101575.59;;;16.96;44.99
60015;BME280;45867;52.480;6.056;2023-04-06T10:33:30;101574.31;;;16.07;45.50
60015;BME280;45867;52.480;6.056;2023-04-06T10:35:56;101580.81;;;15.38;49.57
60015;BME280;45867;52.480;6.056;2023-04-06T10:38:33;101573.44;;;14.90;50.76
60015;BME280;45867;52.480;6.056;2023-04-06T10:41:04;101582.22;;;14.36;51.62
60015;BME280;45867;52.480;6.056;2023-04-06T10:43:33;101562.91;;;13.13;57.57
60015;BME280;45867;52.480;6.056;2023-04-06T10:46:00;101575.19;;;13.75;57.57
60015;BME280;45867;52.480;6.056;2023-04-06T10:48:43;101571.09;;;12.75;60.82
60015;BME280;45867;52.480;6.056;2023-04-06T10:51:16;101573.94;;;12.53;64.51
60015;BME280;45867;52.480;6.056;2023-04-06T10:53:43;101573.16;;;12.53;68.65
60015;BME280;45867;52.480;6.056;2023-04-06T10:56:11;101573.66;;;12.44;71.01
60015;BME280;45867;52.480;6.056;2023-04-06T10:58:37;101570.19;;;12.39;72.25
60015;BME280;45867;52.480;6.056;2023-04-06T11:01:02;101565.03;;;12.22;73.46
60015;BME280;45867;52.480;6.056;2023-04-06T11:03:29;101567.84;;;12.63;74.34
60015;BME280;45867;52.480;6.056;2023-04-06T11:05:55;101566.28;;;12.72;72.91
60015;BME280;45867;52.480;6.056;2023-04-06T11:08:29;101571.34;;;12.69;76.23
60015;BME280;45867;52.480;6.056;2023-04-06T11:11:16;101572.81;;;13.38;71.19
60015;BME280;45867;52.480;6.056;2023-04-06T11:13:52;101575.16;;;13.19;69.25
60015;BME280;45867;52.480;6.056;2023-04-06T11:16:20;101566.91;;;13.71;70.79
60015;BME280;45867;52.480;6.056;2023-04-06T11:18:56;101567.16;;;12.93;67.17
60015;BME280;45867;52.480;6.056;2023-04-06T11:24:11;101566.81;;;12.06;72.79
60015;BME280;45867;52.480;6.056;2023-04-06T11:26:47;101577.66;;;12.52;76.74
60015;BME280;45867;52.480;6.056;2023-04-06T11:29:21;101565.53;;;12.87;75.95
60015;BME280;45867;52.480;6.056;2023-04-06T11:31:51;101574.28;;;12.87;75.04
60015;BME280;45867;52.480;6.056;2023-04-06T11:34:25;101555.22;;;12.23;76.69
60015;BME280;45867;52.480;6.056;2023-04-06T11:37:00;101565.56;;;12.24;77.11
60015;BME280;45867;52.480;6.056;2023-04-06T11:39:31;101547.00;;;12.29;78.95
60015;BME280;45867;52.480;6.056;2023-04-06T11:41:59;101558.78;;;12.54;79.93
60015;BME280;45867;52.480;6.056;2023-04-06T11:47:01;101546.28;;;12.54;78.53
60015;BME280;45867;52.480;6.056;2023-04-06T11:49:31;101546.47;;;12.32;79.95
60015;BME280;45867;52.480;6.056;2023-04-06T11:51:59;101548.09;;;12.33;82.48
60015;BME280;45867;52.480;6.056;2023-04-06T11:54:38;101546.44;;;11.80;84.20
60015;BME280;45867;52.480;6.056;2023-04-06T11:57:04;101538.69;;;11.68;86.98
60015;BME280;45867;52.480;6.056;2023-04-06T11:59:33;101551.13;;;11.67;87.53
60015;BME280;45867;52.480;6.056;2023-04-06T12:02:02;101538.06;;;11.55;89.69
60015;BME280;45867;52.480;6.056;2023-04-06T12:04:28;101539.28;;;11.38;93.79
60015;BME280;45867;52.480;6.056;2023-04-06T12:06:54;101551.13;;;11.30;97.87
60015;BME280;45867;52.480;6.056;2023-04-06T12:09:20;101561.66;;;11.20;100.00
60015;BME280;45867;52.480;6.056;2023-04-06T12:11:45;101554.16;;;11.11;100.00
60015;BME280;45867;52.480;6.056;2023-04-06T12:14:11;101566.13;;;11.14;100.00
60015;BME280;45867;52.480;6.056;2023-04-06T12:16:36;101569.00;;;11.13;100.00
60015;BME280;45867;52.480;6.056;2023-04-06T12:19:03;101556.91;;;10.95;100.00
60015;BME280;45867;52.480;6.056;2023-04-06T12:21:31;101567.63;;;11.05;100.00
60015;BME280;45867;52.480;6.056;2023-04-06T12:23:59;101561.56;;;11.09;100.00
60015;BME280;45867;52.480;6.056;2023-04-06T12:26:25;101551.00;;;11.15;100.00
60015;BME280;45867;52.480;6.056;2023-04-06T12:28:51;101559.97;;;11.08;100.00
60015;BME280;45867;52.480;6.056;2023-04-06T12:31:17;101559.28;;;11.23;100.00
60015;BME280;45867;52.480;6.056;2023-04-06T12:33:45;101563.69;;;11.13;100.00
60015;BME280;45867;52.480;6.056;2023-04-06T12:36:12;101558.50;;;10.96;100.00
60015;BME280;45867;52.480;6.056;2023-04-06T12:38:39;101564.03;;;10.89;100.00
60015;BME280;45867;52.480;6.056;2023-04-06T12:41:06;101559.97;;;11.08;100.00
60015;BME280;45867;52.480;6.056;2023-04-06T12:43:31;101561.91;;;10.91;100.00
60015;BME280;45867;52.480;6.056;2023-04-06T12:45:57;101551.09;;;10.71;100.00
60015;BME280;45867;52.480;6.056;2023-04-06T12:48:23;101558.00;;;10.72;100.00
60015;BME280;45867;52.480;6.056;2023-04-06T12:51:01;101556.28;;;10.60;100.00
60015;BME280;45867;52.480;6.056;2023-04-06T12:53:27;101558.00;;;10.50;100.00